sensor_id;sensor_type;location;lat;lon;timestamp;temperature;humidity
34877;DHT22;21086;44.780;17.194;2023-07-29T00:01:12;20.40;99.90
34877;DHT22;21086;44.780;17.194;2023-07-29T00:03:40;20.40;99.90
34877;DHT22;21086;44.780;17.194;2023-07-29T00:06:09;20.30;99.90
34877;DHT22;21086;44.780;17.194;2023-07-29T00:08:37;20.30;99.90
34877;DHT22;21086;44.780;17.194;2023-07-29T00:11:07;20.20;99.90
34877;DHT22;21086;44.780;17.194;2023-07-29T00:13:35;20.10;99.90
34877;DHT22;21086;44.780;17.194;2023-07-29T00:16:04;20.00;99.90
34877;DHT22;21086;44.780;17.194;2023-07-29T00:18:33;20.10;99.90
34877;DHT22;21086;44.780;17.194;2023-07-29T00:21:00;20.10;99.90
34877;DHT22;21086;44.780;17.194;2023-07-29T00:23:29;20.00;99.90
34877;DHT22;21086;44.780;17.194;2023-07-29T00:25:56;20.00;99.90
34877;DHT22;21086;44.780;17.194;2023-07-29T00:28:23;20.60;99.90
34877;DHT22;21086;44.780;17.194;2023-07-29T00:30:50;20.90;99.90
34877;DHT22;21086;44.780;17.194;2023-07-29T00:33:17;20.70;99.90
34877;DHT22;21086;44.780;17.194;2023-07-29T00:35:45;20.50;99.90
34877;DHT22;21086;44.780;17.194;2023-07-29T00:38:12;20.40;99.90
34877;DHT22;21086;44.780;17.194;2023-07-29T00:40:40;20.50;99.90
34877;DHT22;21086;44.780;17.194;2023-07-29T00:43:07;20.50;99.90
34877;DHT22;21086;44.780;17.194;2023-07-29T00:45:38;20.30;99.90
34877;DHT22;21086;44.780;17.194;2023-07-29T00:48:05;20.30;99.90
34877;DHT22;21086;44.780;17.194;2023-07-29T00:50:32;20.20;99.90
34877;DHT22;21086;44.780;17.194;2023-07-29T00:53:00;20.20;99.90
34877;DHT22;21086;44.780;17.194;2023-07-29T00:55:27;20.20;99.90
34877;DHT22;21086;44.780;17.194;2023-07-29T00:57:55;20.10;99.90
34877;DHT22;21086;44.780;17.194;2023-07-29T01:00:22;20.10;99.90
34877;DHT22;21086;44.780;17.194;2023-07-29T01:02:49;20.00;99.90
34877;DHT22;21086;44.780;17.194;2023-07-29T01:05:17;19.90;99.90
34877;DHT22;21086;44.780;17.194;2023-07-29T01:07:53;19.80;99.90
34877;DHT22;21086;44.780;17.194;2023-07-29T01:10:40;19.80;99.90
34877;DHT22;21086;44.780;17.194;2023-07-29T01:18:21;20.00;99.90
34877;DHT22;21086;44.780;17.194;2023-07-29T01:20:53;20.00;99.90
34877;DHT22;21086;44.780;17.194;2023-07-29T01:23:25;19.80;99.90
34877;DHT22;21086;44.780;17.194;2023-07-29T01:25:52;19.80;99.90
34877;DHT22;21086;44.780;17.194;2023-07-29T01:28:19;19.70;99.90
34877;DHT22;21086;44.780;17.194;2023-07-29T01:30:49;19.70;99.90
34877;DHT22;21086;44.780;17.194;2023-07-29T01:33:26;19.70;99.90
34877;DHT22;21086;44.780;17.194;2023-07-29T01:36:07;19.60;99.90
34877;DHT22;21086;44.780;17.194;2023-07-29T01:38:36;19.60;99.90
34877;DHT22;21086;44.780;17.194;2023-07-29T01:41:07;19.70;99.90
34877;DHT22;21086;44.780;17.194;2023-07-29T01:43:38;19.80;99.90
34877;DHT22;21086;44.780;17.194;2023-07-29T01:46:11;20.00;99.90
34877;DHT22;21086;44.780;17.194;2023-07-29T01:48:39;19.90;99.90
34877;DHT22;21086;44.780;17.194;2023-07-29T01:51:07;19.80;99.90
34877;DHT22;21086;44.780;17.194;2023-07-29T01:53:34;19.70;99.90
34877;DHT22;21086;44.780;17.194;2023-07-29T01:56:02;19.80;99.90
34877;DHT22;21086;44.780;17.194;2023-07-29T01:58:29;19.80;99.90
34877;DHT22;21086;44.780;17.194;2023-07-29T02:00:57;19.80;99.90
34877;DHT22;21086;44.780;17.194;2023-07-29T02:03:25;19.70;99.90
34877;DHT22;21086;44.780;17.194;2023-07-29T02:05:52;19.70;99.90
34877;DHT22;21086;44.780;17.194;2023-07-29T02:08:19;19.60;99.90
34877;DHT22;21086;44.780;17.194;2023-07-29T02:10:46;19.50;99.90
34877;DHT22;21086;44.780;17.194;2023-07-29T02:13:15;19.50;99.90
34877;DHT22;21086;44.780;17.194;2023-07-29T02:15:43;19.50;99.90
34877;DHT22;21086;44.780;17.194;2023-07-29T02:18:10;19.50;99.90
34877;DHT22;21086;44.780;17.194;2023-07-29T02:20:38;19.40;99.90
34877;DHT22;21086;44.780;17.194;2023-07-29T02:23:05;19.50;99.90
34877;DHT22;21086;44.780;17.194;2023-07-29T02:25:35;19.50;99.90
34877;DHT22;21086;44.780;17.194;2023-07-29T02:28:02;19.50;99.90
34877;DHT22;21086;44.780;17.194;2023-07-29T02:30:30;19.50;99.90
34877;DHT22;21086;44.780;17.194;2023-07-29T02:32:57;19.50;99.90
34877;DHT22;21086;44.780;17.194;2023-07-29T02:35:25;19.50;99.90
34877;DHT22;21086;44.780;17.194;2023-07-29T02:37:51;19.60;99.90
34877;DHT22;21086;44.780;17.194;2023-07-29T02:40:18;19.50;99.90
34877;DHT22;21086;44.780;17.194;2023-07-29T02:42:47;19.50;99.90
34877;DHT22;21086;44.780;17.194;2023-07-29T02:45:14;19.40;99.90
34877;DHT22;21086;44.780;17.194;2023-07-29T02:47:41;19.50;99.90
34877;DHT22;21086;44.780;17.194;2023-07-29T02:50:09;19.50;99.90
34877;DHT22;21086;44.780;17.194;2023-07-29T02:52:36;19.40;99.90
34877;DHT22;21086;44.780;17.194;2023-07-29T02:55:03;19.50;99.90
34877;DHT22;21086;44.780;17.194;2023-07-29T02:57:30;19.50;99.90
34877;DHT22;21086;44.780;17.194;2023-07-29T02:59:57;19.50;99.90
34877;DHT22;21086;44.780;17.194;2023-07-29T03:02:24;19.50;99.90
34877;DHT22;21086;44.780;17.194;2023-07-29T03:04:52;19.30;99.90
34877;DHT22;21086;44.780;17.194;2023-07-29T03:07:19;19.20;99.90
34877;DHT22;21086;44.780;17.194;2023-07-29T03:09:47;19.20;99.90
34877;DHT22;21086;44.780;17.194;2023-07-29T03:12:14;19.10;99.90
34877;DHT22;21086;44.780;17.194;2023-07-29T03:14:41;19.00;99.90
34877;DHT22;21086;44.780;17.194;2023-07-29T03:17:08;19.10;99.90
34877;DHT22;21086;44.780;17.194;2023-07-29T03:19:36;19.10;99.90
34877;DHT22;21086;44.780;17.194;2023-07-29T03:22:03;19.10;99.90
34877;DHT22;21086;44.780;17.194;2023-07-29T03:24:30;19.20;99.90
34877;DHT22;21086;44.780;17.194;2023-07-29T03:26:58;19.00;99.90
34877;DHT22;21086;44.780;17.194;2023-07-29T03:29:25;19.10;99.90
34877;DHT22;21086;44.780;17.194;2023-07-29T03:31:52;19.00;99.90
34877;DHT22;21086;44.780;17.194;2023-07-29T03:34:19;19.00;99.90
34877;DHT22;21086;44.780;17.194;2023-07-29T03:36:46;19.10;99.90
34877;DHT22;21086;44.780;17.194;2023-07-29T03:39:15;19.10;99.90
34877;DHT22;21086;44.780;17.194;2023-07-29T03:41:42;19.10;99.90
34877;DHT22;21086;44.780;17.194;2023-07-29T03:44:09;19.30;99.90
34877;DHT22;21086;44.780;17.194;2023-07-29T03:46:37;19.20;99.90
34877;DHT22;21086;44.780;17.194;2023-07-29T03:49:05;19.10;99.90
34877;DHT22;21086;44.780;17.194;2023-07-29T03:51:32;19.00;99.90
34877;DHT22;21086;44.780;17.194;2023-07-29T03:53:59;19.00;99.90
34877;DHT22;21086;44.780;17.194;2023-07-29T03:56:26;19.00;99.90
34877;DHT22;21086;44.780;17.194;2023-07-29T03:59:02;18.90;99.90
34877;DHT22;21086;44.780;17.194;2023-07-29T04:01:30;18.90;99.90
34877;DHT22;21086;44.780;17.194;2023-07-29T04:03:59;18.90;99.90
34877;DHT22;21086;44.780;17.194;2023-07-29T04:06:28;18.80;99.90
34877;DHT22;21086;44.780;17.194;2023-07-29T04:08:56;18.90;99.90
34877;DHT22;21086;44.780;17.194;2023-07-29T04:11:24;19.00;99.90
34877;DHT22;21086;44.780;17.194;2023-07-29T04:13:52;19.10;99.90
34877;DHT22;21086;44.780;17.194;2023-07-29T04:16:19;19.10;99.90
34877;DHT22;21086;44.780;17.194;2023-07-29T04:18:46;19.30;99.90
34877;DHT22;21086;44.780;17.194;2023-07-29T04:21:13;19.30;99.90
34877;DHT22;21086;44.780;17.194;2023-07-29T04:23:40;19.30;99.90
34877;DHT22;21086;44.780;17.194;2023-07-29T04:26:08;19.40;99.90
34877;DHT22;21086;44.780;17.194;2023-07-29T04:28:36;19.40;99.90
34877;DHT22;21086;44.780;17.194;2023-07-29T04:31:04;19.50;99.90
34877;DHT22;21086;44.780;17.194;2023-07-29T04:33:31;19.50;99.90
34877;DHT22;21086;44.780;17.194;2023-07-29T04:36:02;19.80;99.90
34877;DHT22;21086;44.780;17.194;2023-07-29T04:38:33;20.10;99.90
34877;DHT22;21086;44.780;17.194;2023-07-29T04:41:01;20.00;99.90
34877;DHT22;21086;44.780;17.194;2023-07-29T04:43:31;20.10;99.90
34877;DHT22;21086;44.780;17.194;2023-07-29T04:45:59;20.20;99.90
34877;DHT22;21086;44.780;17.194;2023-07-29T04:48:26;20.30;99.90
34877;DHT22;21086;44.780;17.194;2023-07-29T04:50:54;20.40;99.90
34877;DHT22;21086;44.780;17.194;2023-07-29T04:53:22;20.50;99.90
34877;DHT22;21086;44.780;17.194;2023-07-29T04:55:49;20.50;99.90
34877;DHT22;21086;44.780;17.194;2023-07-29T04:58:17;20.60;99.90
34877;DHT22;21086;44.780;17.194;2023-07-29T05:00:47;20.70;99.90
34877;DHT22;21086;44.780;17.194;2023-07-29T05:03:16;20.70;99.90
34877;DHT22;21086;44.780;17.194;2023-07-29T05:05:43;20.90;99.90
34877;DHT22;21086;44.780;17.194;2023-07-29T05:08:10;21.00;99.90
34877;DHT22;21086;44.780;17.194;2023-07-29T05:10:37;21.10;99.90
34877;DHT22;21086;44.780;17.194;2023-07-29T05:13:06;21.20;99.90
34877;DHT22;21086;44.780;17.194;2023-07-29T05:15:35;21.00;99.90
34877;DHT22;21086;44.780;17.194;2023-07-29T05:18:02;21.00;99.90
34877;DHT22;21086;44.780;17.194;2023-07-29T05:20:30;21.00;99.90
34877;DHT22;21086;44.780;17.194;2023-07-29T05:22:57;21.00;99.90
34877;DHT22;21086;44.780;17.194;2023-07-29T05:25:24;21.10;99.90
34877;DHT22;21086;44.780;17.194;2023-07-29T05:27:51;21.10;99.90
34877;DHT22;21086;44.780;17.194;2023-07-29T05:30:19;21.20;99.90
34877;DHT22;21086;44.780;17.194;2023-07-29T05:32:46;21.20;99.90
34877;DHT22;21086;44.780;17.194;2023-07-29T05:35:13;21.30;99.90
34877;DHT22;21086;44.780;17.194;2023-07-29T05:37:41;21.30;99.90
34877;DHT22;21086;44.780;17.194;2023-07-29T05:40:08;21.30;99.90
34877;DHT22;21086;44.780;17.194;2023-07-29T05:42:37;21.20;99.90
34877;DHT22;21086;44.780;17.194;2023-07-29T05:45:06;21.30;99.90
34877;DHT22;21086;44.780;17.194;2023-07-29T05:47:33;21.30;99.90
34877;DHT22;21086;44.780;17.194;2023-07-29T05:50:00;21.40;99.90
34877;DHT22;21086;44.780;17.194;2023-07-29T05:52:31;21.50;99.90
34877;DHT22;21086;44.780;17.194;2023-07-29T05:54:59;21.60;99.90
34877;DHT22;21086;44.780;17.194;2023-07-29T05:57:26;21.70;99.90
34877;DHT22;21086;44.780;17.194;2023-07-29T05:59:53;21.70;99.90
34877;DHT22;21086;44.780;17.194;2023-07-29T06:02:20;21.80;99.90
34877;DHT22;21086;44.780;17.194;2023-07-29T06:04:47;21.80;99.90
34877;DHT22;21086;44.780;17.194;2023-07-29T06:07:14;21.80;99.90
34877;DHT22;21086;44.780;17.194;2023-07-29T06:09:42;21.80;99.90
34877;DHT22;21086;44.780;17.194;2023-07-29T06:12:09;22.00;99.90
34877;DHT22;21086;44.780;17.194;2023-07-29T06:14:36;22.20;99.90
34877;DHT22;21086;44.780;17.194;2023-07-29T06:17:03;22.50;99.90
34877;DHT22;21086;44.780;17.194;2023-07-29T06:19:30;22.60;99.90
34877;DHT22;21086;44.780;17.194;2023-07-29T06:21:57;22.80;99.90
34877;DHT22;21086;44.780;17.194;2023-07-29T06:24:24;22.90;99.90
34877;DHT22;21086;44.780;17.194;2023-07-29T06:26:52;22.90;99.90
34877;DHT22;21086;44.780;17.194;2023-07-29T06:29:19;23.00;99.90
34877;DHT22;21086;44.780;17.194;2023-07-29T06:31:45;23.10;99.90
34877;DHT22;21086;44.780;17.194;2023-07-29T06:34:13;23.20;99.90
34877;DHT22;21086;44.780;17.194;2023-07-29T06:36:40;23.40;99.90
34877;DHT22;21086;44.780;17.194;2023-07-29T06:39:07;23.50;99.90
34877;DHT22;21086;44.780;17.194;2023-07-29T06:41:34;23.70;99.90
34877;DHT22;21086;44.780;17.194;2023-07-29T06:44:01;23.80;99.90
34877;DHT22;21086;44.780;17.194;2023-07-29T06:46:28;23.80;99.90
34877;DHT22;21086;44.780;17.194;2023-07-29T06:48:55;23.80;99.90
34877;DHT22;21086;44.780;17.194;2023-07-29T06:51:23;23.90;99.90
34877;DHT22;21086;44.780;17.194;2023-07-29T06:53:49;24.00;99.90
34877;DHT22;21086;44.780;17.194;2023-07-29T06:56:16;24.10;99.90
34877;DHT22;21086;44.780;17.194;2023-07-29T06:58:43;24.30;99.90
34877;DHT22;21086;44.780;17.194;2023-07-29T07:01:11;24.30;99.90
34877;DHT22;21086;44.780;17.194;2023-07-29T07:03:38;24.50;99.90
34877;DHT22;21086;44.780;17.194;2023-07-29T07:06:05;24.60;99.90
34877;DHT22;21086;44.780;17.194;2023-07-29T07:08:32;24.70;99.90
34877;DHT22;21086;44.780;17.194;2023-07-29T07:10:59;24.80;99.90
34877;DHT22;21086;44.780;17.194;2023-07-29T07:13:26;25.00;99.90
34877;DHT22;21086;44.780;17.194;2023-07-29T07:15:56;25.00;99.90
34877;DHT22;21086;44.780;17.194;2023-07-29T07:18:23;24.90;99.90
34877;DHT22;21086;44.780;17.194;2023-07-29T07:20:51;24.80;99.90
34877;DHT22;21086;44.780;17.194;2023-07-29T07:23:19;24.90;99.90
34877;DHT22;21086;44.780;17.194;2023-07-29T07:25:46;24.90;99.90
34877;DHT22;21086;44.780;17.194;2023-07-29T07:28:13;25.00;99.90
34877;DHT22;21086;44.780;17.194;2023-07-29T07:30:40;25.20;99.90
34877;DHT22;21086;44.780;17.194;2023-07-29T07:33:08;25.30;99.90
34877;DHT22;21086;44.780;17.194;2023-07-29T07:35:36;25.40;99.90
34877;DHT22;21086;44.780;17.194;2023-07-29T07:38:03;25.60;99.90
34877;DHT22;21086;44.780;17.194;2023-07-29T07:40:31;25.60;99.90
34877;DHT22;21086;44.780;17.194;2023-07-29T07:42:58;25.80;99.90
34877;DHT22;21086;44.780;17.194;2023-07-29T07:45:25;25.90;99.90
34877;DHT22;21086;44.780;17.194;2023-07-29T07:47:52;26.00;99.90
34877;DHT22;21086;44.780;17.194;2023-07-29T07:50:23;26.10;99.90
34877;DHT22;21086;44.780;17.194;2023-07-29T07:52:51;26.20;99.90
34877;DHT22;21086;44.780;17.194;2023-07-29T07:55:18;26.20;99.90
34877;DHT22;21086;44.780;17.194;2023-07-29T07:57:46;26.90;99.90
34877;DHT22;21086;44.780;17.194;2023-07-29T08:00:14;26.40;99.90
34877;DHT22;21086;44.780;17.194;2023-07-29T08:02:44;26.50;99.90
34877;DHT22;21086;44.780;17.194;2023-07-29T08:05:11;26.50;99.90
34877;DHT22;21086;44.780;17.194;2023-07-29T08:07:38;26.50;99.90
34877;DHT22;21086;44.780;17.194;2023-07-29T08:10:06;26.70;99.90
34877;DHT22;21086;44.780;17.194;2023-07-29T08:12:33;26.70;99.90
34877;DHT22;21086;44.780;17.194;2023-07-29T08:15:00;26.80;99.90
34877;DHT22;21086;44.780;17.194;2023-07-29T08:17:27;26.80;99.90
34877;DHT22;21086;44.780;17.194;2023-07-29T08:19:54;26.70;99.90
34877;DHT22;21086;44.780;17.194;2023-07-29T08:22:21;26.60;99.90
34877;DHT22;21086;44.780;17.194;2023-07-29T08:24:48;26.40;99.90
34877;DHT22;21086;44.780;17.194;2023-07-29T08:27:15;26.50;99.90
34877;DHT22;21086;44.780;17.194;2023-07-29T08:29:43;26.70;99.90
34877;DHT22;21086;44.780;17.194;2023-07-29T08:32:10;26.90;99.90
34877;DHT22;21086;44.780;17.194;2023-07-29T08:34:37;27.00;99.90
34877;DHT22;21086;44.780;17.194;2023-07-29T08:37:04;27.10;99.90
34877;DHT22;21086;44.780;17.194;2023-07-29T08:39:31;27.10;99.90
34877;DHT22;21086;44.780;17.194;2023-07-29T08:42:04;26.90;99.90
34877;DHT22;21086;44.780;17.194;2023-07-29T08:44:42;26.80;99.90
34877;DHT22;21086;44.780;17.194;2023-07-29T08:47:10;27.00;99.90
34877;DHT22;21086;44.780;17.194;2023-07-29T08:49:38;27.10;99.90
34877;DHT22;21086;44.780;17.194;2023-07-29T08:52:06;27.20;99.90
34877;DHT22;21086;44.780;17.194;2023-07-29T08:54:34;27.10;99.90
34877;DHT22;21086;44.780;17.194;2023-07-29T08:57:01;27.10;99.90
34877;DHT22;21086;44.780;17.194;2023-07-29T08:59:29;27.10;99.90
34877;DHT22;21086;44.780;17.194;2023-07-29T09:01:57;27.20;99.90
34877;DHT22;21086;44.780;17.194;2023-07-29T09:04:24;27.20;99.90
34877;DHT22;21086;44.780;17.194;2023-07-29T09:06:54;27.20;99.90
34877;DHT22;21086;44.780;17.194;2023-07-29T09:09:22;27.40;99.90
34877;DHT22;21086;44.780;17.194;2023-07-29T09:11:50;27.50;99.90
34877;DHT22;21086;44.780;17.194;2023-07-29T09:14:17;27.60;99.90
34877;DHT22;21086;44.780;17.194;2023-07-29T09:16:44;27.60;99.90
34877;DHT22;21086;44.780;17.194;2023-07-29T09:19:12;27.70;99.90
34877;DHT22;21086;44.780;17.194;2023-07-29T09:21:40;27.80;99.90
34877;DHT22;21086;44.780;17.194;2023-07-29T09:24:07;27.70;99.90
34877;DHT22;21086;44.780;17.194;2023-07-29T09:26:35;27.70;99.90
34877;DHT22;21086;44.780;17.194;2023-07-29T09:29:03;27.70;99.90
34877;DHT22;21086;44.780;17.194;2023-07-29T09:31:30;27.60;99.90
34877;DHT22;21086;44.780;17.194;2023-07-29T09:33:58;27.60;99.90
34877;DHT22;21086;44.780;17.194;2023-07-29T09:36:26;27.80;99.90
34877;DHT22;21086;44.780;17.194;2023-07-29T09:38:54;27.80;99.90
34877;DHT22;21086;44.780;17.194;2023-07-29T09:41:26;27.90;99.90
34877;DHT22;21086;44.780;17.194;2023-07-29T09:46:25;28.20;99.90
34877;DHT22;21086;44.780;17.194;2023-07-29T09:48:58;28.40;99.90
34877;DHT22;21086;44.780;17.194;2023-07-29T09:51:25;28.60;99.90
34877;DHT22;21086;44.780;17.194;2023-07-29T09:53:53;28.80;99.90
34877;DHT22;21086;44.780;17.194;2023-07-29T09:56:26;28.90;99.90
34877;DHT22;21086;44.780;17.194;2023-07-29T09:58:56;28.80;99.90
34877;DHT22;21086;44.780;17.194;2023-07-29T10:01:24;28.80;99.90
34877;DHT22;21086;44.780;17.194;2023-07-29T10:03:51;29.00;99.90
34877;DHT22;21086;44.780;17.194;2023-07-29T10:06:19;29.20;99.90
34877;DHT22;21086;44.780;17.194;2023-07-29T10:08:47;29.30;99.90
34877;DHT22;21086;44.780;17.194;2023-07-29T10:11:16;29.10;99.90
34877;DHT22;21086;44.780;17.194;2023-07-29T10:13:47;29.20;99.90
34877;DHT22;21086;44.780;17.194;2023-07-29T10:16:38;29.40;99.90
34877;DHT22;21086;44.780;17.194;2023-07-29T10:19:07;29.60;99.90
34877;DHT22;21086;44.780;17.194;2023-07-29T10:21:38;29.80;99.90
34877;DHT22;21086;44.780;17.194;2023-07-29T10:24:09;29.80;99.90
34877;DHT22;21086;44.780;17.194;2023-07-29T10:26:38;29.60;99.90
34877;DHT22;21086;44.780;17.194;2023-07-29T10:29:12;29.70;99.90
34877;DHT22;21086;44.780;17.194;2023-07-29T10:31:43;29.80;99.90
34877;DHT22;21086;44.780;17.194;2023-07-29T10:34:12;29.90;99.90
34877;DHT22;21086;44.780;17.194;2023-07-29T10:36:40;30.10;99.90
34877;DHT22;21086;44.780;17.194;2023-07-29T10:39:07;30.20;99.90
34877;DHT22;21086;44.780;17.194;2023-07-29T10:47:35;30.30;99.90
34877;DHT22;21086;44.780;17.194;2023-07-29T10:50:20;30.30;99.90
34877;DHT22;21086;44.780;17.194;2023-07-29T10:52:52;30.20;99.90
34877;DHT22;21086;44.780;17.194;2023-07-29T10:55:33;30.30;99.90
34877;DHT22;21086;44.780;17.194;2023-07-29T10:58:12;30.30;99.90
34877;DHT22;21086;44.780;17.194;2023-07-29T11:00:44;30.40;99.90
34877;DHT22;21086;44.780;17.194;2023-07-29T11:03:13;30.50;99.90
34877;DHT22;21086;44.780;17.194;2023-07-29T11:05:49;30.60;99.90
34877;DHT22;21086;44.780;17.194;2023-07-29T11:08:30;30.60;99.90
34877;DHT22;21086;44.780;17.194;2023-07-29T11:10:59;30.20;99.90
34877;DHT22;21086;44.780;17.194;2023-07-29T11:13:27;30.20;99.90
34877;DHT22;21086;44.780;17.194;2023-07-29T11:15:55;30.30;99.90
34877;DHT22;21086;44.780;17.194;2023-07-29T11:18:30;30.50;99.90
34877;DHT22;21086;44.780;17.194;2023-07-29T11:20:58;30.70;99.90
34877;DHT22;21086;44.780;17.194;2023-07-29T11:23:33;30.80;99.90
34877;DHT22;21086;44.780;17.194;2023-07-29T11:26:02;30.80;99.90
34877;DHT22;21086;44.780;17.194;2023-07-29T11:28:30;30.40;99.90
34877;DHT22;21086;44.780;17.194;2023-07-29T11:30:58;30.20;99.90
34877;DHT22;21086;44.780;17.194;2023-07-29T11:33:26;30.10;99.90
34877;DHT22;21086;44.780;17.194;2023-07-29T11:35:55;30.30;99.90
34877;DHT22;21086;44.780;17.194;2023-07-29T11:38:23;30.50;99.90
34877;DHT22;21086;44.780;17.194;2023-07-29T11:41:08;30.50;99.90
34877;DHT22;21086;44.780;17.194;2023-07-29T11:43:35;30.30;99.90
34877;DHT22;21086;44.780;17.194;2023-07-29T11:46:03;30.40;99.90
34877;DHT22;21086;44.780;17.194;2023-07-29T11:48:32;30.50;99.90
34877;DHT22;21086;44.780;17.194;2023-07-29T11:51:01;30.80;99.90
34877;DHT22;21086;44.780;17.194;2023-07-29T11:53:30;30.90;99.90
34877;DHT22;21086;44.780;17.194;2023-07-29T11:55:58;31.00;99.90
34877;DHT22;21086;44.780;17.194;2023-07-29T11:58:26;31.20;99.90
34877;DHT22;21086;44.780;17.194;2023-07-29T12:00:53;31.40;99.90
34877;DHT22;21086;44.780;17.194;2023-07-29T12:03:20;31.40;99.90
34877;DHT22;21086;44.780;17.194;2023-07-29T12:05:48;31.50;99.90
34877;DHT22;21086;44.780;17.194;2023-07-29T12:08:16;31.40;99.90
34877;DHT22;21086;44.780;17.194;2023-07-29T12:10:44;31.80;99.90
34877;DHT22;21086;44.780;17.194;2023-07-29T12:13:11;31.80;99.90
34877;DHT22;21086;44.780;17.194;2023-07-29T12:15:38;32.20;99.90
34877;DHT22;21086;44.780;17.194;2023-07-29T12:18:07;32.70;99.90
34877;DHT22;21086;44.780;17.194;2023-07-29T12:20:35;33.10;99.90
34877;DHT22;21086;44.780;17.194;2023-07-29T12:23:03;33.60;99.90
34877;DHT22;21086;44.780;17.194;2023-07-29T12:25:33;33.80;99.90
34877;DHT22;21086;44.780;17.194;2023-07-29T12:28:06;34.30;99.90
34877;DHT22;21086;44.780;17.194;2023-07-29T12:30:40;34.90;99.90
34877;DHT22;21086;44.780;17.194;2023-07-29T12:33:07;35.30;99.90
34877;DHT22;21086;44.780;17.194;2023-07-29T12:35:38;35.90;99.90
34877;DHT22;21086;44.780;17.194;2023-07-29T12:38:06;36.10;99.90
34877;DHT22;21086;44.780;17.194;2023-07-29T12:40:38;36.50;99.90
34877;DHT22;21086;44.780;17.194;2023-07-29T12:43:05;36.40;99.90
34877;DHT22;21086;44.780;17.194;2023-07-29T12:45:36;36.70;99.90
34877;DHT22;21086;44.780;17.194;2023-07-29T12:48:06;37.20;99.90
34877;DHT22;21086;44.780;17.194;2023-07-29T12:50:33;37.60;99.90
34877;DHT22;21086;44.780;17.194;2023-07-29T12:53:00;37.90;99.90
34877;DHT22;21086;44.780;17.194;2023-07-29T12:55:27;38.30;99.90
34877;DHT22;21086;44.780;17.194;2023-07-29T12:57:54;38.70;99.90
34877;DHT22;21086;44.780;17.194;2023-07-29T13:00:21;39.20;99.90
34877;DHT22;21086;44.780;17.194;2023-07-29T13:02:48;39.30;99.90
34877;DHT22;21086;44.780;17.194;2023-07-29T13:05:16;39.60;99.90
34877;DHT22;21086;44.780;17.194;2023-07-29T13:07:44;40.00;99.90
34877;DHT22;21086;44.780;17.194;2023-07-29T13:10:11;40.50;99.90
34877;DHT22;21086;44.780;17.194;2023-07-29T13:12:40;40.80;99.90
34877;DHT22;21086;44.780;17.194;2023-07-29T13:15:07;40.60;99.90
34877;DHT22;21086;44.780;17.194;2023-07-29T13:17:34;41.30;99.90
34877;DHT22;21086;44.780;17.194;2023-07-29T13:20:02;41.70;99.90
34877;DHT22;21086;44.780;17.194;2023-07-29T13:22:29;42.20;99.90
34877;DHT22;21086;44.780;17.194;2023-07-29T13:24:56;42.70;99.90
34877;DHT22;21086;44.780;17.194;2023-07-29T13:27:23;42.80;99.90
34877;DHT22;21086;44.780;17.194;2023-07-29T13:29:52;44.10;99.90
34877;DHT22;21086;44.780;17.194;2023-07-29T13:32:19;45.30;99.90
34877;DHT22;21086;44.780;17.194;2023-07-29T13:34:46;46.00;99.90
34877;DHT22;21086;44.780;17.194;2023-07-29T13:37:13;46.40;99.90
34877;DHT22;21086;44.780;17.194;2023-07-29T13:39:40;45.50;99.90
34877;DHT22;21086;44.780;17.194;2023-07-29T13:42:08;46.30;99.90
34877;DHT22;21086;44.780;17.194;2023-07-29T13:44:35;47.00;99.90
34877;DHT22;21086;44.780;17.194;2023-07-29T13:47:02;47.00;99.90
34877;DHT22;21086;44.780;17.194;2023-07-29T13:49:29;46.90;99.90
34877;DHT22;21086;44.780;17.194;2023-07-29T13:51:56;48.40;99.90
34877;DHT22;21086;44.780;17.194;2023-07-29T13:54:23;49.10;99.90
34877;DHT22;21086;44.780;17.194;2023-07-29T13:56:50;49.30;99.90
34877;DHT22;21086;44.780;17.194;2023-07-29T13:59:17;48.90;99.90
34877;DHT22;21086;44.780;17.194;2023-07-29T14:01:44;46.40;99.90
34877;DHT22;21086;44.780;17.194;2023-07-29T14:04:11;46.40;99.90
34877;DHT22;21086;44.780;17.194;2023-07-29T14:06:38;48.70;99.90
34877;DHT22;21086;44.780;17.194;2023-07-29T14:09:08;49.40;99.90
34877;DHT22;21086;44.780;17.194;2023-07-29T14:11:36;51.40;99.90
34877;DHT22;21086;44.780;17.194;2023-07-29T14:14:03;51.60;99.90
34877;DHT22;21086;44.780;17.194;2023-07-29T14:16:30;52.90;99.90
34877;DHT22;21086;44.780;17.194;2023-07-29T14:18:57;53.30;99.90
34877;DHT22;21086;44.780;17.194;2023-07-29T14:21:25;53.90;99.90
34877;DHT22;21086;44.780;17.194;2023-07-29T14:23:52;52.30;99.90
34877;DHT22;21086;44.780;17.194;2023-07-29T14:26:19;52.80;99.90
34877;DHT22;21086;44.780;17.194;2023-07-29T14:28:46;52.60;99.90
34877;DHT22;21086;44.780;17.194;2023-07-29T14:31:13;53.60;99.90
34877;DHT22;21086;44.780;17.194;2023-07-29T14:33:40;54.10;99.90
34877;DHT22;21086;44.780;17.194;2023-07-29T14:36:07;53.60;99.90
34877;DHT22;21086;44.780;17.194;2023-07-29T14:38:35;53.20;99.90
34877;DHT22;21086;44.780;17.194;2023-07-29T14:41:03;52.90;99.90
34877;DHT22;21086;44.780;17.194;2023-07-29T14:43:31;51.60;99.90
34877;DHT22;21086;44.780;17.194;2023-07-29T14:45:58;52.00;99.90
34877;DHT22;21086;44.780;17.194;2023-07-29T14:48:25;53.20;99.90
34877;DHT22;21086;44.780;17.194;2023-07-29T14:50:52;51.80;99.90
34877;DHT22;21086;44.780;17.194;2023-07-29T14:53:19;52.50;99.90
34877;DHT22;21086;44.780;17.194;2023-07-29T14:55:46;53.90;99.90
34877;DHT22;21086;44.780;17.194;2023-07-29T14:58:13;54.10;99.90
34877;DHT22;21086;44.780;17.194;2023-07-29T15:00:40;53.60;99.90
34877;DHT22;21086;44.780;17.194;2023-07-29T15:03:07;53.10;99.90
34877;DHT22;21086;44.780;17.194;2023-07-29T15:05:35;53.50;99.90
34877;DHT22;21086;44.780;17.194;2023-07-29T15:08:02;53.20;99.90
34877;DHT22;21086;44.780;17.194;2023-07-29T15:10:30;53.30;99.90
34877;DHT22;21086;44.780;17.194;2023-07-29T15:12:56;54.60;99.90
34877;DHT22;21086;44.780;17.194;2023-07-29T15:15:24;54.60;99.90
34877;DHT22;21086;44.780;17.194;2023-07-29T15:17:51;55.10;99.90
34877;DHT22;21086;44.780;17.194;2023-07-29T15:20:18;54.90;99.90
34877;DHT22;21086;44.780;17.194;2023-07-29T15:22:44;55.10;99.90
34877;DHT22;21086;44.780;17.194;2023-07-29T15:25:11;54.50;99.90
34877;DHT22;21086;44.780;17.194;2023-07-29T15:27:39;54.20;99.90
34877;DHT22;21086;44.780;17.194;2023-07-29T15:30:06;53.90;99.90
34877;DHT22;21086;44.780;17.194;2023-07-29T15:32:34;53.90;99.90
34877;DHT22;21086;44.780;17.194;2023-07-29T15:35:01;54.80;99.90